This is the latest recevied weather packets stored in our database for station/object DB0HRH-10. If no packets are shown the sender has not sent any weather packets the latest 10 day(s).
| Time | Temp. | Humidity | Pressure | Rain* | Wind** | Luminosity | Snow |
|---|---|---|---|---|---|---|---|
| 1777027567 | 26.11° C | 20% | 1024.7 hPa | - | - | - | - |
| 1777026666 | 25° C | 21% | 1024.8 hPa | - | - | - | - |
| 1777025766 | 23.33° C | 22% | 1024.8 hPa | - | - | - | - |
| 1777024866 | 21.67° C | 27% | 1024.8 hPa | - | - | - | - |
| 1777023966 | 20° C | 27% | 1025 hPa | - | - | - | - |
| 1777023066 | 18.89° C | 30% | 1025.1 hPa | - | - | - | - |
| 1777022166 | 20.56° C | 29% | 1025.2 hPa | - | - | - | - |
| 1777021266 | 20.56° C | 29% | 1025.1 hPa | - | - | - | - |
| 1777020366 | 20.56° C | 28% | 1025.1 hPa | - | - | - | - |
| 1777019466 | 18.89° C | 28% | 1025.1 hPa | - | - | - | - |
| 1777018566 | 18.89° C | 29% | 1025.1 hPa | - | - | - | - |
| 1777017666 | 16.67° C | 31% | 1025.2 hPa | - | - | - | - |
| 1777016765 | 17.22° C | 31% | 1025.1 hPa | - | - | - | - |
| 1777015866 | 14.44° C | 36% | 1025.2 hPa | - | - | - | - |
| 1777014965 | 11.67° C | 39% | 1025.3 hPa | - | - | - | - |
| 1777014065 | 11.11° C | 38% | 1025.3 hPa | - | - | - | - |
| 1777013165 | 12.22° C | 36% | 1025.4 hPa | - | - | - | - |
| 1777012265 | 10° C | 40% | 1025.6 hPa | - | - | - | - |
| 1777011365 | 11.11° C | 38% | 1025.7 hPa | - | - | - | - |
| 1777010465 | 10° C | 40% | 1025.6 hPa | - | - | - | - |
| 1777009565 | 7.78° C | 43% | 1025.7 hPa | - | - | - | - |
| 1777008665 | 7.78° C | 44% | 1025.7 hPa | - | - | - | - |
| 1777007765 | 7.78° C | 43% | 1025.8 hPa | - | - | - | - |
| 1777006865 | 7.78° C | 43% | 1025.7 hPa | - | - | - | - |
| 1777005965 | 7.78° C | 42% | 1025.7 hPa | - | - | - | - |
* Rain since midnight (hover to see other rain measurements)
** Current wind speed in m/s (hover to see current wind gust speed)